Eaton, New York
Current Conditions -  °F | °C
As of 6:53 AM on Sunday 25 Jan 2015 (Local Time) from KRME Reporting Station
Light Snow Light Snow  
Wind Chill: -11°   Ceiling: 3900
Heat Index: -3°   Visibility: 6mi
Dew Point: -8°   Wind: 20mph
Humidity: 71%   Direction: 300°WNW
Pressure: 29.67"   Gusts: 32mph
Location:  42.85°N, 75.61°W
Report Text: KRME 251153Z 30017G28KT 6SM -SN SCT028 OVC039 M03/M08 A2967 RMK AO2 PK WND 28032/1059 UPB18E24SNB24 PRESRR SLP050 P0000 60000 T10331078 10000 21033 53055
Loading
Personal Weather Stations






























Interactive Weather Map New forecast layout! Learn more

10-Day Weather Forecast

Advertisements
Track Severe Weather on mobile